Stations météo

réclame
Mon MeteoGroup
Albacete, Espagne (8279): Température de l'air & dewpoint: 18.05.2019 03:00:00 - 24.05.2019 03:00:00 (CEST)Albacete, Espagne (8279): Vitesse du vent & gusts: 18.05.2019 03:00:00 - 24.05.2019 03:00:00 (CEST)Albacete, Espagne (8279): Direction du vent: 18.05.2019 03:00:00 - 24.05.2019 03:00:00 (CEST)Albacete, Espagne (8279): reduced air pressure: 18.05.2019 03:00:00 - 24.05.2019 03:00:00 (CEST)Albacete, Espagne (8279): Quantités de précipitations: 18.05.2019 03:00:00 - 24.05.2019 03:00:00 (CEST)
Date & Time tt [°C] td [°C] ff [km/h] ff [knt] fx [km/h] fx [knt] dd ppp [hPa] rr [mm]
24.05.2019 03:00:00 - - - - - - - - -
24.05.2019 02:00:00 18,7 6,2 7 4 17 9 S 1013,3 -
24.05.2019 01:00:00 19,7 5,8 7 4 25 14 SSW 1013,3 0,0
24.05.2019 00:00:00 20,9 5,6 8 4 19 10 S 1013,1 0,0
23.05.2019 23:00:00 21,7 5,9 5 3 20 11 S 1013,0 0,0
23.05.2019 22:00:00 22,7 6,4 5 3 20 11 SSE 1012,3 0,0
23.05.2019 21:00:00 24,6 7,7 6 4 23 13 S 1011,9 0,0
23.05.2019 20:00:00 26,3 7,3 5 3 20 11 SSW 1011,4 -
23.05.2019 19:00:00 27,6 6,8 8 4 22 12 W 1011,1 0,0
23.05.2019 18:00:00 28,0 7,3 7 4 18 10 W 1011,5 0,0
23.05.2019 17:00:00 27,0 7,4 8 4 20 11 W 1011,9 0,0
23.05.2019 16:00:00 27,4 7,8 4 2 23 12 W 1012,6 0,0
23.05.2019 15:00:00 27,3 8,7 4 2 17 9 W 1013,2 0,0
23.05.2019 14:00:00 26,5 9,3 2 1 16 8 NW 1013,9 -
23.05.2019 13:00:00 24,5 10,0 4 2 14 8 W 1015,0 0,0
23.05.2019 12:00:00 22,0 9,8 4 2 11 6 W 1016,3 0,0
23.05.2019 11:00:00 19,5 9,0 3 1 11 6 S 1017,2 0,0
23.05.2019 10:00:00 17,2 8,1 4 2 14 7 S 1017,8 0,0
23.05.2019 09:00:00 15,9 7,7 4 2 16 9 S 1017,8 0,0
23.05.2019 08:00:00 15,0 7,3 5 3 17 9 SSE 1017,6 -
23.05.2019 07:00:00 14,8 7,1 3 2 19 10 SE 1017,5 0,0
23.05.2019 06:00:00 14,7 7,0 5 3 16 9 SSE 1017,4 0,0
23.05.2019 05:00:00 14,9 7,1 5 3 16 9 SSE 1017,3 0,0
23.05.2019 04:00:00 15,1 7,4 4 2 13 7 ESE 1017,3 0,0
23.05.2019 03:00:00 15,6 7,1 3 2 13 7 E 1017,3 0,0
23.05.2019 02:00:00 16,8 7,1 5 3 24 13 SSE 1016,9 -
23.05.2019 01:00:00 17,7 7,1 5 3 19 11 S 1016,6 0,0
23.05.2019 00:00:00 17,9 7,0 5 3 23 12 S 1016,6 0,0
22.05.2019 23:00:00 18,8 7,3 7 4 25 14 S 1016,5 0,0
22.05.2019 22:00:00 20,1 7,1 8 4 24 13 S 1015,5 0,0
22.05.2019 21:00:00 22,2 7,1 10 5 27 15 S 1014,3 0,0
22.05.2019 20:00:00 24,7 6,8 7 4 22 12 SSW 1013,3 -
22.05.2019 19:00:00 25,8 6,4 5 3 17 9 SW 1012,9 0,0
22.05.2019 18:00:00 26,8 6,7 4 2 17 9 SW 1013,1 0,0
22.05.2019 17:00:00 27,2 7,6 4 2 17 9 E 1013,0 0,0
22.05.2019 16:00:00 26,3 7,8 3 2 14 8 E 1013,6 0,0
22.05.2019 15:00:00 25,2 8,3 5 3 14 8 ENE 1014,2 0,0
22.05.2019 14:00:00 24,5 8,8 5 3 14 8 SSW 1014,8 -
22.05.2019 13:00:00 23,1 8,8 4 2 14 8 ESE 1015,6 0,0
22.05.2019 12:00:00 20,7 9,6 5 3 18 10 SE 1016,5 0,0
22.05.2019 11:00:00 18,4 10,5 3 2 14 7 S 1016,9 0,0
22.05.2019 10:00:00 15,4 12,0 1 0 11 6 SE 1017,7 0,0
22.05.2019 09:00:00 12,0 10,9 0 0 4 2 N 1018,5 0,0
22.05.2019 08:00:00 10,4 9,7 0 0 3 1 ENE 1018,8 -
22.05.2019 07:00:00 10,3 9,2 0 0 2 1 E 1018,2 0,0
22.05.2019 06:00:00 11,3 9,7 0 0 0 0 N 1017,5 0,0
22.05.2019 05:00:00 12,1 10,3 1 0 11 6 E 1017,3 0,0
22.05.2019 04:00:00 11,6 10,5 0 0 7 4 ESE 1017,3 0,0
22.05.2019 03:00:00 12,3 10,5 0 0 1 0 E 1017,6 0,0
22.05.2019 02:00:00 13,6 10,8 0 0 11 6 N 1017,4 -
22.05.2019 01:00:00 14,5 11,1 5 3 18 10 SE 1016,9 0,0
22.05.2019 00:00:00 14,9 11,1 1 1 15 8 E 1016,9 0,0
21.05.2019 23:00:00 15,9 8,4 8 5 19 10 SE 1016,7 0,0
21.05.2019 22:00:00 16,2 9,2 4 2 25 14 ESE 1015,7 0,0
21.05.2019 21:00:00 16,8 9,7 6 3 26 14 SSE 1014,8 0,0
21.05.2019 20:00:00 17,9 8,4 8 4 35 19 SSW 1013,7 -
21.05.2019 19:00:00 22,1 6,7 6 3 18 10 WSW 1011,9 0,0
21.05.2019 18:00:00 22,8 7,0 5 3 18 10 WSW 1011,6 0,0
21.05.2019 17:00:00 21,4 9,6 9 5 24 13 SE 1012,3 0,3
21.05.2019 16:00:00 19,9 10,3 4 2 18 10 WNW 1013,3 1,1
21.05.2019 15:00:00 21,5 6,2 2 1 15 8 W 1012,7 0,0
21.05.2019 14:00:00 21,5 7,0 3 2 14 8 SSE 1012,9 -
21.05.2019 13:00:00 20,6 7,6 3 2 16 9 SSE 1013,7 0,0
21.05.2019 12:00:00 19,5 8,8 2 1 13 7 E 1014,0 0,0
21.05.2019 11:00:00 17,7 10,0 5 3 16 9 SE 1014,2 0,0
21.05.2019 10:00:00 15,6 12,0 0 0 16 9 SSW 1014,5 0,0
21.05.2019 09:00:00 13,4 11,1 0 0 5 3 E 1014,6 0,0
21.05.2019 08:00:00 12,7 10,3 0 0 13 7 ESE 1014,4 -
21.05.2019 07:00:00 13,3 9,9 1 1 8 5 E 1013,6 0,0
21.05.2019 06:00:00 14,6 10,6 0 0 7 4 N 1012,8 0,0
21.05.2019 05:00:00 15,2 10,2 0 0 11 6 N 1012,8 0,0
21.05.2019 04:00:00 15,2 10,8 0 0 15 8 SW 1012,8 0,0
21.05.2019 03:00:00 15,6 10,4 1 1 9 5 S 1012,6 0,0
21.05.2019 02:00:00 15,6 10,8 2 1 13 7 SE 1012,7 -
21.05.2019 01:00:00 15,8 10,8 4 2 15 8 SSW 1012,9 0,0
21.05.2019 00:00:00 16,1 10,4 4 2 18 10 S 1012,7 0,0
20.05.2019 23:00:00 17,0 10,2 4 2 19 11 S 1012,6 0,0
20.05.2019 22:00:00 18,6 7,0 6 3 18 10 S 1011,1 0,0
20.05.2019 21:00:00 19,8 4,6 5 3 19 10 WSW 1010,2 0,0
20.05.2019 20:00:00 21,7 3,8 10 5 22 12 W 1009,3 -
20.05.2019 19:00:00 22,9 4,5 7 4 23 12 W 1008,7 0,0
20.05.2019 18:00:00 23,3 5,1 3 2 19 11 NNW 1008,8 0,0
20.05.2019 17:00:00 22,3 4,8 4 2 20 11 W 1009,5 0,0
20.05.2019 16:00:00 21,7 5,1 2 1 20 11 NNW 1010,1 0,0
20.05.2019 15:00:00 21,6 4,6 2 1 14 8 NNE 1010,8 0,0
20.05.2019 14:00:00 20,0 4,8 2 1 16 9 NNE 1011,7 -
20.05.2019 13:00:00 18,1 5,9 3 2 12 7 W 1012,5 0,0
20.05.2019 12:00:00 15,6 5,1 3 2 9 5 N 1013,3 0,0
20.05.2019 11:00:00 13,9 5,0 1 0 9 5 N 1013,8 0,0
20.05.2019 10:00:00 11,6 5,9 3 2 9 5 E 1014,2 0,0
20.05.2019 09:00:00 8,8 5,0 0 0 6 4 N 1014,7 0,0
20.05.2019 08:00:00 7,8 3,9 0 0 6 4 SSW 1014,8 -
20.05.2019 07:00:00 8,0 3,8 0 0 6 3 N 1013,8 0,0
20.05.2019 06:00:00 8,4 3,8 0 0 5 3 N 1013,4 0,0
20.05.2019 05:00:00 8,7 3,6 0 0 8 4 N 1013,3 0,0
20.05.2019 04:00:00 9,8 3,6 3 2 10 5 ENE 1013,2 0,0
20.05.2019 03:00:00 10,4 3,0 0 0 5 3 N 1013,5 0,0
20.05.2019 02:00:00 11,4 2,7 2 1 6 4 E 1013,2 -
20.05.2019 01:00:00 11,8 2,3 2 1 8 5 ENE 1013,3 0,0
20.05.2019 00:00:00 13,3 2,3 0 0 3 2 ENE 1012,5 0,0
19.05.2019 23:00:00 14,5 2,1 1 0 3 2 ENE 1012,0 0,0
19.05.2019 22:00:00 15,8 2,5 0 0 5 3 NNE 1011,0 0,0
19.05.2019 21:00:00 17,6 2,7 1 1 12 6 NNW 1010,1 0,0
19.05.2019 20:00:00 20,0 1,9 3 2 18 10 WNW 1008,9 -
19.05.2019 19:00:00 19,7 1,7 4 2 26 14 NW 1009,0 0,0
19.05.2019 18:00:00 20,6 2,5 6 3 27 14 WNW 1008,6 0,0
19.05.2019 17:00:00 19,5 2,3 7 4 26 14 WNW 1009,2 0,0
19.05.2019 16:00:00 19,8 3,0 6 3 30 16 WNW 1009,3 0,0
19.05.2019 15:00:00 19,0 3,6 4 2 20 11 WNW 1009,6 0,0
19.05.2019 14:00:00 18,6 3,6 7 4 24 13 W 1010,0 -
19.05.2019 13:00:00 16,4 3,4 5 3 22 12 W 1011,0 0,0
19.05.2019 12:00:00 15,4 3,8 7 4 21 11 W 1011,3 0,0
19.05.2019 11:00:00 13,2 3,0 4 2 13 7 WNW 1011,9 0,0
19.05.2019 10:00:00 10,9 3,2 2 1 10 6 W 1012,8 0,0
19.05.2019 09:00:00 8,8 1,7 3 2 9 5 WNW 1013,2 0,0
19.05.2019 08:00:00 7,6 1,1 3 1 8 4 W 1013,1 -
19.05.2019 07:00:00 7,5 0,9 0 0 4 2 SSE 1012,8 0,0
19.05.2019 06:00:00 8,3 0,2 1 1 9 5 WNW 1012,4 0,0
19.05.2019 05:00:00 9,1 0,2 4 2 9 5 WSW 1012,4 0,0
19.05.2019 04:00:00 8,8 0,2 2 1 9 5 WSW 1012,4 0,0
19.05.2019 03:00:00 8,5 0,4 0 0 1 1 N 1012,5 0,0
19.05.2019 02:00:00 9,4 -0,5 1 0 9 5 SSW 1012,6 -
19.05.2019 01:00:00 10,5 -0,7 3 2 11 6 W 1012,2 0,0
19.05.2019 00:00:00 11,7 -0,7 3 2 10 6 W 1012,0 0,0
18.05.2019 23:00:00 13,5 -1,0 5 3 15 8 W 1011,4 0,0
18.05.2019 22:00:00 14,3 -1,0 4 2 19 11 WNW 1010,6 0,0
18.05.2019 21:00:00 16,1 -1,4 8 4 21 11 W 1009,6 0,0
18.05.2019 20:00:00 18,1 -0,7 7 4 30 16 WNW 1008,7 -
18.05.2019 19:00:00 18,0 -0,3 9 5 31 17 WNW 1008,4 0,0
18.05.2019 18:00:00 18,2 0,4 11 6 31 17 WNW 1008,3 0,0
18.05.2019 17:00:00 17,5 1,1 10 5 35 19 W 1008,2 0,0
18.05.2019 16:00:00 18,2 2,1 8 4 29 16 W 1008,3 0,0
18.05.2019 15:00:00 16,2 1,5 11 6 31 17 W 1009,1 0,0
18.05.2019 14:00:00 16,4 2,5 10 6 31 17 W 1009,0 -
18.05.2019 13:00:00 15,8 3,6 10 5 34 18 W 1009,4 0,0
18.05.2019 12:00:00 14,7 4,3 9 5 29 16 W 1009,7 0,0
18.05.2019 11:00:00 13,6 5,3 7 4 23 12 W 1009,8 0,0
18.05.2019 10:00:00 11,9 4,6 9 5 23 12 W 1009,9 0,0
18.05.2019 09:00:00 11,2 4,5 0 0 13 7 W 1010,2 0,0
18.05.2019 08:00:00 10,8 3,9 0 0 12 6 WSW 1009,8 -
18.05.2019 07:00:00 10,4 5,0 0 0 11 6 WSW 1009,3 0,0
18.05.2019 06:00:00 10,8 5,6 2 1 9 5 W 1008,9 0,0
18.05.2019 05:00:00 12,0 4,3 1 1 8 4 SW 1009,0 0,0
18.05.2019 04:00:00 12,0 5,0 2 1 9 5 SSW 1009,5 0,0
18.05.2019 03:00:00 12,0 5,1 0 0 6 3 N 1010,3 0,0

tt = Température de l'air
td = dewpoint
ff = Vitesse du vent
fx = gusts
dd = Direction du vent
ppp = reduced air pressure
rr = Quantités de précipitations

stations d'obs. à proximité